createdAt,value
2022-10-02T00:02:16.472Z,10.80
2022-10-02T00:05:21.533Z,10.70
2022-10-02T00:08:15.403Z,10.60
2022-10-02T00:11:13.793Z,10.50
2022-10-02T00:14:00.899Z,10.50
2022-10-02T00:16:43.761Z,10.60
2022-10-02T00:19:16.713Z,10.50
2022-10-02T00:22:22.691Z,10.50
2022-10-02T00:25:35.437Z,10.50
2022-10-02T00:28:32.615Z,10.50
2022-10-02T00:31:38.782Z,10.50
2022-10-02T00:34:47.111Z,10.40
2022-10-02T00:37:33.309Z,10.30
2022-10-02T00:40:21.796Z,10.30
2022-10-02T00:43:02.748Z,10.30
2022-10-02T00:46:19.567Z,10.30
2022-10-02T00:49:10.832Z,10.40
2022-10-02T00:51:48.968Z,10.40
2022-10-02T00:54:50.017Z,10.50
2022-10-02T00:57:43.266Z,10.50
2022-10-02T01:00:19.692Z,10.50
2022-10-02T01:03:27.552Z,10.50
2022-10-02T01:05:58.029Z,10.50
2022-10-02T01:08:28.472Z,10.50
2022-10-02T01:11:03.077Z,10.50
2022-10-02T01:13:34.488Z,10.50
2022-10-02T01:16:12.251Z,10.50
2022-10-02T01:18:47.193Z,10.40
2022-10-02T01:21:43.006Z,10.40
2022-10-02T01:24:42.453Z,10.50
2022-10-02T01:27:13.089Z,10.60
2022-10-02T01:29:41.979Z,10.50
2022-10-02T01:32:09.809Z,10.50
2022-10-02T01:34:38.920Z,10.50
2022-10-02T01:37:06.652Z,10.50
2022-10-02T01:39:33.722Z,10.40
2022-10-02T01:42:01.198Z,10.40
2022-10-02T01:44:28.539Z,10.50
2022-10-02T01:46:55.478Z,10.50
2022-10-02T01:49:53.132Z,10.40
2022-10-02T01:52:45.543Z,10.40
2022-10-02T01:55:55.407Z,10.40
2022-10-02T01:58:33.867Z,10.30
2022-10-02T02:01:25.614Z,10.30
2022-10-02T02:04:01.492Z,10.30
2022-10-02T02:07:09.352Z,10.30
2022-10-02T02:09:50.353Z,10.40
2022-10-02T02:12:32.722Z,10.40
2022-10-02T02:15:08.568Z,10.40
2022-10-02T02:17:49.484Z,10.40
2022-10-02T02:20:23.293Z,10.40
2022-10-02T02:22:53.169Z,10.30
2022-10-02T02:25:26.594Z,10.40
2022-10-02T02:27:57.644Z,10.50
2022-10-02T02:30:25.454Z,10.70
2022-10-02T02:33:03.503Z,10.90
2022-10-02T02:35:47.810Z,10.90
2022-10-02T02:38:37.812Z,10.80
2022-10-02T02:41:09.727Z,10.90
2022-10-02T02:43:51.290Z,11.00
2022-10-02T02:46:35.645Z,11.10
2022-10-02T02:49:11.382Z,11.00
2022-10-02T02:51:42.998Z,10.90
2022-10-02T02:54:21.212Z,10.80
2022-10-02T02:56:50.231Z,10.80
2022-10-02T02:59:19.368Z,10.80
2022-10-02T03:01:46.737Z,10.80
2022-10-02T03:04:15.137Z,10.80
2022-10-02T03:06:45.413Z,10.70
2022-10-02T03:09:19.350Z,10.60
2022-10-02T03:12:07.598Z,10.50
2022-10-02T03:15:09.762Z,10.50
2022-10-02T03:17:39.708Z,10.30
2022-10-02T03:20:25.308Z,10.20
2022-10-02T03:23:23.153Z,10.20
2022-10-02T03:26:18.792Z,10.30
2022-10-02T03:28:57.107Z,10.20
2022-10-02T03:31:28.270Z,10.30
2022-10-02T03:33:57.718Z,10.30
2022-10-02T03:36:25.486Z,10.40
2022-10-02T03:39:20.280Z,10.30
2022-10-02T03:41:46.657Z,10.20
2022-10-02T03:44:13.729Z,10.20
2022-10-02T03:46:40.938Z,10.20
2022-10-02T03:49:08.055Z,10.10
2022-10-02T03:51:35.238Z,10.10
2022-10-02T03:54:02.398Z,10.00
2022-10-02T03:56:57.265Z,10.10
2022-10-02T04:00:04.813Z,10.10
2022-10-02T04:02:39.752Z,10.10
2022-10-02T04:05:25.112Z,10.10
2022-10-02T04:07:57.492Z,10.10
2022-10-02T04:10:41.283Z,10.10
2022-10-02T04:13:31.834Z,10.10
2022-10-02T04:16:14.080Z,10.00
2022-10-02T04:19:01.854Z,10.00
2022-10-02T04:21:41.219Z,10.00
2022-10-02T04:24:34.658Z,10.00
2022-10-02T04:27:10.449Z,9.90
2022-10-02T04:29:51.694Z,10.00
2022-10-02T04:32:29.928Z,10.10
2022-10-02T04:34:58.253Z,10.10
2022-10-02T04:37:52.637Z,10.20
2022-10-02T04:40:50.662Z,10.10
2022-10-02T04:43:32.362Z,10.10
2022-10-02T04:46:20.888Z,10.00
2022-10-02T04:49:10.292Z,10.10
2022-10-02T04:51:52.017Z,10.30
2022-10-02T04:54:49.589Z,10.50
2022-10-02T04:57:34.455Z,10.60
2022-10-02T05:00:14.457Z,10.50
2022-10-02T05:02:49.658Z,10.50
2022-10-02T05:05:50.473Z,10.30
2022-10-02T05:08:46.588Z,10.00
2022-10-02T05:11:43.187Z,9.90
2022-10-02T05:14:37.403Z,9.90
2022-10-02T05:17:13.254Z,9.70
2022-10-02T05:20:01.908Z,9.70
2022-10-02T05:22:35.413Z,10.10
2022-10-02T05:25:29.200Z,10.70
2022-10-02T05:28:24.556Z,11.20
2022-10-02T05:31:18.161Z,11.70
2022-10-02T05:34:06.207Z,12.10
2022-10-02T05:36:52.773Z,12.50
2022-10-02T05:39:33.790Z,12.70
2022-10-02T05:42:17.893Z,13.00
2022-10-02T05:45:25.533Z,13.20
2022-10-02T05:47:59.352Z,13.20
2022-10-02T05:50:33.725Z,13.00
2022-10-02T05:53:29.213Z,12.90
2022-10-02T05:56:25.948Z,12.70
2022-10-02T05:59:33.363Z,12.50
2022-10-02T06:02:05.972Z,12.10
2022-10-02T06:04:40.649Z,11.80
2022-10-02T06:07:13.587Z,11.20
2022-10-02T06:09:49.848Z,10.60
2022-10-02T06:12:20.652Z,10.30
2022-10-02T06:14:52.870Z,10.10
2022-10-02T06:17:24.123Z,10.10
2022-10-02T06:20:19.595Z,10.30
2022-10-02T06:23:21.926Z,10.50
2022-10-02T06:26:02.908Z,10.80
2022-10-02T06:28:40.604Z,11.00
2022-10-02T06:31:14.066Z,11.30
2022-10-02T06:33:41.563Z,11.50
2022-10-02T06:36:30.182Z,11.60
2022-10-02T06:39:10.882Z,11.80
2022-10-02T06:42:05.907Z,12.00
2022-10-02T06:45:04.529Z,12.10
2022-10-02T06:48:00.914Z,12.30
2022-10-02T06:50:45.867Z,12.30
2022-10-02T06:57:05.533Z,12.30
2022-10-02T07:00:07.364Z,12.40
2022-10-02T07:03:03.798Z,12.40
2022-10-02T07:06:11.348Z,12.40
2022-10-02T07:09:16.833Z,12.40
2022-10-02T07:11:59.197Z,12.60
2022-10-02T07:14:54.469Z,12.80
2022-10-02T07:18:23.608Z,13.00
2022-10-02T07:21:10.638Z,13.30
2022-10-02T07:23:47.664Z,13.70
2022-10-02T07:26:36.907Z,14.10
2022-10-02T07:29:51.014Z,14.30
2022-10-02T07:32:42.728Z,14.50
2022-10-02T07:35:37.488Z,14.80
2022-10-02T07:38:48.357Z,15.00
2022-10-02T07:41:39.303Z,15.10
2022-10-02T07:44:30.409Z,15.00
2022-10-02T07:47:22.406Z,15.00
2022-10-02T07:50:09.312Z,15.20
2022-10-02T07:53:08.617Z,15.70
2022-10-02T07:55:44.382Z,16.60
2022-10-02T07:58:29.053Z,17.90
2022-10-02T08:01:08.743Z,19.30
2022-10-02T08:04:04.375Z,20.00
2022-10-02T08:06:35.237Z,20.40
2022-10-02T08:09:13.328Z,20.60
2022-10-02T08:12:18.132Z,20.40
2022-10-02T08:14:54.937Z,19.90
2022-10-02T08:17:58.717Z,19.50
2022-10-02T08:20:47.107Z,19.20
2022-10-02T08:23:29.813Z,19.20
2022-10-02T08:26:35.298Z,19.00
2022-10-02T08:29:24.357Z,18.60
2022-10-02T08:31:58.715Z,18.70
2022-10-02T08:34:35.689Z,19.00
2022-10-02T08:37:43.038Z,19.10
2022-10-02T08:40:45.089Z,19.20
2022-10-02T08:44:01.989Z,19.60
2022-10-02T08:47:08.573Z,20.00
2022-10-02T08:50:01.888Z,20.40
2022-10-02T08:53:08.751Z,20.50
2022-10-02T08:56:06.848Z,20.40
2022-10-02T08:59:26.843Z,20.50
2022-10-02T09:02:41.026Z,20.80
2022-10-02T09:09:03.567Z,20.60
2022-10-02T09:12:15.949Z,20.90
2022-10-02T09:15:22.151Z,20.60
2022-10-02T09:18:31.493Z,20.90
2022-10-02T09:21:33.894Z,20.50
2022-10-02T09:24:18.388Z,20.50
2022-10-02T09:27:22.394Z,20.50
2022-10-02T09:30:33.694Z,20.70
2022-10-02T09:33:43.462Z,20.40
2022-10-02T09:36:46.647Z,20.40
2022-10-02T09:40:04.235Z,20.60
2022-10-02T09:43:09.267Z,20.60
2022-10-02T09:45:54.209Z,20.40
2022-10-02T09:48:50.902Z,20.60
2022-10-02T09:52:00.813Z,20.70
2022-10-02T09:54:40.688Z,20.70
2022-10-02T09:57:45.958Z,20.70
2022-10-02T10:00:22.533Z,20.50
2022-10-02T10:03:23.240Z,20.60
2022-10-02T10:06:22.258Z,20.40
2022-10-02T10:09:29.592Z,20.10
2022-10-02T10:12:49.542Z,20.00
2022-10-02T10:15:41.433Z,19.80
2022-10-02T10:18:53.673Z,19.80
2022-10-02T10:21:57.268Z,19.50
2022-10-02T10:24:45.652Z,19.50
2022-10-02T10:27:49.176Z,19.20
2022-10-02T10:30:45.698Z,19.00
2022-10-02T10:33:47.858Z,19.00
2022-10-02T10:37:04.869Z,19.00
2022-10-02T10:40:11.207Z,19.20
2022-10-02T10:43:08.359Z,19.10
2022-10-02T10:46:20.631Z,18.90
2022-10-02T10:49:26.377Z,18.70
2022-10-02T10:52:44.327Z,18.60
2022-10-02T10:55:48.763Z,18.50
2022-10-02T10:58:46.742Z,18.40
2022-10-02T11:01:56.898Z,18.20
2022-10-02T11:05:03.740Z,18.00
2022-10-02T11:08:02.807Z,17.80
2022-10-02T11:10:59.853Z,17.70
2022-10-02T11:13:50.328Z,17.60
2022-10-02T11:16:47.982Z,17.10
2022-10-02T11:19:30.090Z,16.90
2022-10-02T11:22:50.412Z,16.90
2022-10-02T11:25:54.592Z,16.60
2022-10-02T11:28:58.089Z,16.60
2022-10-02T11:31:52.362Z,16.70
2022-10-02T11:34:48.632Z,16.80
2022-10-02T11:37:46.201Z,16.80
2022-10-02T11:40:44.876Z,16.80
2022-10-02T11:43:44.118Z,16.70
2022-10-02T11:46:49.518Z,16.40
2022-10-02T11:50:03.379Z,16.20
2022-10-02T11:53:20.908Z,16.00
2022-10-02T11:56:09.693Z,16.00
2022-10-02T11:59:12.728Z,16.10
2022-10-02T12:02:16.368Z,16.20
2022-10-02T12:04:57.538Z,16.50
2022-10-02T12:08:01.924Z,16.70
2022-10-02T12:10:58.167Z,16.80
2022-10-02T12:14:04.138Z,16.90
2022-10-02T12:17:11.772Z,17.10
2022-10-02T12:20:48.287Z,17.10
2022-10-02T12:24:10.468Z,17.20
2022-10-02T12:27:17.211Z,17.30
2022-10-02T12:30:14.368Z,17.40
2022-10-02T12:33:08.534Z,17.40
2022-10-02T12:36:19.362Z,17.50
2022-10-02T12:39:13.689Z,17.70
2022-10-02T12:42:14.006Z,17.80
2022-10-02T12:45:18.575Z,17.70
2022-10-02T12:48:00.603Z,17.50
2022-10-02T12:51:08.807Z,17.10
2022-10-02T12:54:33.507Z,16.90
2022-10-02T12:57:54.403Z,16.70
2022-10-02T13:00:55.656Z,16.60
2022-10-02T13:04:11.278Z,16.60
2022-10-02T13:07:16.843Z,16.60
2022-10-02T13:10:28.078Z,16.50
2022-10-02T13:13:38.338Z,16.70
2022-10-02T13:16:28.340Z,16.80
2022-10-02T13:19:16.014Z,16.60
2022-10-02T13:22:06.597Z,16.50
2022-10-02T13:24:53.678Z,16.80
2022-10-02T13:27:38.889Z,16.90
2022-10-02T13:30:17.011Z,17.00
2022-10-02T13:33:35.467Z,17.30
2022-10-02T13:36:36.275Z,17.40
2022-10-02T13:39:34.686Z,17.50
2022-10-02T13:42:21.248Z,17.60
2022-10-02T13:45:18.587Z,17.60
2022-10-02T13:48:07.264Z,17.70
2022-10-02T13:51:13.647Z,17.70
2022-10-02T13:54:19.943Z,17.70
2022-10-02T13:57:25.590Z,17.50
2022-10-02T14:00:30.695Z,17.20
2022-10-02T14:03:29.192Z,17.20
2022-10-02T14:06:03.994Z,17.40
2022-10-02T14:08:44.382Z,17.50
2022-10-02T14:11:50.003Z,17.60
2022-10-02T14:15:11.787Z,17.70
2022-10-02T14:18:03.617Z,17.70
2022-10-02T14:21:12.907Z,17.60
2022-10-02T14:24:10.866Z,17.30
2022-10-02T14:27:23.622Z,17.30
2022-10-02T14:31:04.387Z,17.50
2022-10-02T14:34:11.957Z,17.50
2022-10-02T14:37:19.966Z,17.50
2022-10-02T14:39:52.337Z,17.70
2022-10-02T14:42:45.912Z,17.70
2022-10-02T14:46:18.642Z,17.70
2022-10-02T14:49:32.009Z,17.70
2022-10-02T14:52:22.967Z,17.90
2022-10-02T14:55:08.868Z,17.80
2022-10-02T14:57:49.622Z,17.80
2022-10-02T15:00:27.037Z,17.70
2022-10-02T15:03:23.815Z,17.70
2022-10-02T15:06:26.347Z,17.70
2022-10-02T15:09:38.351Z,17.70
2022-10-02T15:12:18.448Z,17.60
2022-10-02T15:15:15.692Z,17.50
2022-10-02T15:18:20.449Z,17.50
2022-10-02T15:21:30.238Z,17.40
2022-10-02T15:24:21.649Z,17.40
2022-10-02T15:27:28.547Z,17.30
2022-10-02T15:30:22.007Z,17.20
2022-10-02T15:33:33.167Z,17.20
2022-10-02T15:37:04.909Z,17.10
2022-10-02T15:39:55.203Z,17.00
2022-10-02T15:42:50.157Z,16.90
2022-10-02T15:45:57.778Z,16.80
2022-10-02T15:48:48.992Z,16.80
2022-10-02T15:51:29.642Z,16.80
2022-10-02T15:54:36.814Z,16.70
2022-10-02T15:57:36.363Z,16.70
2022-10-02T16:00:54.738Z,16.70
2022-10-02T16:03:29.805Z,16.60
2022-10-02T16:06:26.938Z,16.50
2022-10-02T16:09:15.889Z,16.40
2022-10-02T16:11:46.003Z,16.20
2022-10-02T16:14:46.761Z,16.00
2022-10-02T16:17:53.677Z,15.70
2022-10-02T16:21:10.047Z,15.40
2022-10-02T16:24:29.077Z,15.20
2022-10-02T16:27:37.412Z,14.90
2022-10-02T16:30:21.887Z,14.70
2022-10-02T16:33:09.772Z,14.60
2022-10-02T16:36:09.448Z,14.40
2022-10-02T16:42:21.942Z,14.20
2022-10-02T16:45:17.058Z,14.10
2022-10-02T16:48:23.598Z,14.00
2022-10-02T16:51:21.307Z,13.90
2022-10-02T16:54:20.245Z,13.80
2022-10-02T16:57:22.701Z,13.70
2022-10-02T17:00:25.616Z,13.60
2022-10-02T17:03:24.489Z,13.60
2022-10-02T17:06:20.449Z,13.60
2022-10-02T17:09:17.248Z,13.50
2022-10-02T17:12:26.119Z,13.40
2022-10-02T17:15:15.751Z,13.40
2022-10-02T17:18:03.631Z,13.40
2022-10-02T17:20:34.392Z,13.30
2022-10-02T17:23:46.816Z,13.20
2022-10-02T17:26:47.133Z,13.20
2022-10-02T17:29:57.606Z,13.20
2022-10-02T17:33:24.512Z,13.20
2022-10-02T17:36:33.499Z,13.10
2022-10-02T17:39:21.362Z,13.10
2022-10-02T17:42:12.763Z,13.10
2022-10-02T17:45:18.521Z,13.10
2022-10-02T17:48:28.557Z,13.10
2022-10-02T17:51:59.006Z,13.00
2022-10-02T17:55:13.038Z,13.00
2022-10-02T17:58:00.369Z,13.00
2022-10-02T18:00:33.007Z,13.00
2022-10-02T18:03:49.369Z,13.00
2022-10-02T18:06:53.528Z,13.00
2022-10-02T18:09:38.479Z,12.90
2022-10-02T18:12:14.162Z,12.90
2022-10-02T18:15:18.363Z,12.90
2022-10-02T18:18:16.767Z,12.90
2022-10-02T18:21:21.288Z,12.90
2022-10-02T18:24:32.079Z,12.80
2022-10-02T18:27:42.972Z,12.80
2022-10-02T18:30:28.987Z,12.80
2022-10-02T18:33:25.405Z,12.80
2022-10-02T18:36:29.002Z,12.90
2022-10-02T18:39:34.627Z,12.90
2022-10-02T18:42:48.782Z,13.00
2022-10-02T18:46:00.531Z,13.00
2022-10-02T18:48:59.348Z,13.10
2022-10-02T18:52:01.533Z,13.10
2022-10-02T18:55:02.514Z,13.10
2022-10-02T18:58:16.653Z,13.20
2022-10-02T19:01:06.033Z,13.20
2022-10-02T19:04:00.712Z,13.20
2022-10-02T19:06:35.174Z,13.20
2022-10-02T19:09:20.068Z,13.20
2022-10-02T19:12:38.383Z,13.20
2022-10-02T19:15:31.187Z,13.20
2022-10-02T19:18:07.333Z,13.20
2022-10-02T19:20:54.203Z,13.20
2022-10-02T19:23:59.532Z,13.20
2022-10-02T19:26:47.234Z,13.30
2022-10-02T19:29:37.153Z,13.20
2022-10-02T19:32:32.888Z,13.00
2022-10-02T19:35:25.410Z,12.90
2022-10-02T19:38:22.392Z,12.80
2022-10-02T19:40:57.398Z,12.70
2022-10-02T19:43:38.715Z,12.80
2022-10-02T19:46:13.009Z,12.80
2022-10-02T19:48:41.818Z,12.80
2022-10-02T19:51:25.628Z,12.80
2022-10-02T19:54:13.558Z,12.80
2022-10-02T19:56:48.682Z,12.70
2022-10-02T19:59:26.367Z,12.80
2022-10-02T20:01:59.942Z,12.90
2022-10-02T20:04:33.187Z,13.00
2022-10-02T20:07:03.477Z,13.00
2022-10-02T20:09:45.510Z,12.90
2022-10-02T20:12:22.466Z,12.70
2022-10-02T20:15:06.782Z,12.50
2022-10-02T20:17:41.777Z,12.40
2022-10-02T20:20:17.583Z,12.50
2022-10-02T20:23:08.037Z,12.60
2022-10-02T20:26:02.451Z,12.60
2022-10-02T20:28:55.694Z,12.70
2022-10-02T20:31:56.286Z,12.60
2022-10-02T20:34:37.351Z,12.70
2022-10-02T20:37:09.838Z,12.70
2022-10-02T20:40:03.552Z,12.70
2022-10-02T20:42:54.592Z,12.70
2022-10-02T20:45:34.546Z,12.70
2022-10-02T20:48:21.627Z,12.60
2022-10-02T20:51:07.345Z,12.60
2022-10-02T20:57:59.789Z,12.50
2022-10-02T21:00:45.584Z,12.50
2022-10-02T21:03:56.027Z,12.50
2022-10-02T21:06:46.979Z,12.50
2022-10-02T21:09:55.882Z,12.50
2022-10-02T21:12:32.624Z,12.50
2022-10-02T21:15:27.654Z,12.40
2022-10-02T21:18:31.912Z,12.20
2022-10-02T21:21:24.674Z,11.90
2022-10-02T21:24:28.598Z,11.40
2022-10-02T21:27:32.007Z,11.10
2022-10-02T21:30:24.789Z,11.10
2022-10-02T21:33:15.423Z,11.00
2022-10-02T21:36:05.883Z,11.10
2022-10-02T21:39:12.323Z,11.10
2022-10-02T21:42:07.747Z,11.10
2022-10-02T21:45:17.087Z,11.30
2022-10-02T21:48:20.367Z,11.40
2022-10-02T21:51:07.728Z,11.60
2022-10-02T21:54:13.601Z,11.70
2022-10-02T21:57:18.125Z,11.80
2022-10-02T22:00:23.967Z,11.90
2022-10-02T22:03:38.184Z,11.90
2022-10-02T22:06:34.363Z,11.80
2022-10-02T22:10:00.395Z,11.70
2022-10-02T22:13:09.453Z,11.80
2022-10-02T22:16:20.439Z,11.70
2022-10-02T22:19:00.157Z,11.70
2022-10-02T22:22:05.953Z,11.80
2022-10-02T22:25:04.213Z,11.80
2022-10-02T22:28:10.635Z,11.70
2022-10-02T22:31:13.901Z,11.70
2022-10-02T22:34:13.563Z,11.70
2022-10-02T22:37:23.447Z,11.70
2022-10-02T22:40:07.013Z,11.70
2022-10-02T22:43:05.942Z,11.60
2022-10-02T22:46:03.330Z,11.50
2022-10-02T22:49:18.715Z,11.40
2022-10-02T22:52:35.603Z,11.60
2022-10-02T22:55:35.454Z,11.70
2022-10-02T22:58:15.674Z,11.80
2022-10-02T23:01:22.174Z,11.90
2022-10-02T23:03:58.928Z,11.90
2022-10-02T23:06:48.737Z,11.90
2022-10-02T23:09:52.327Z,12.10
2022-10-02T23:12:49.723Z,12.00
2022-10-02T23:16:11.636Z,12.10
2022-10-02T23:19:04.492Z,12.30
2022-10-02T23:21:59.532Z,12.40
2022-10-02T23:24:45.409Z,12.40
2022-10-02T23:27:47.726Z,12.40
2022-10-02T23:30:26.346Z,12.40
2022-10-02T23:33:18.537Z,12.40
2022-10-02T23:36:24.937Z,12.30
2022-10-02T23:39:13.569Z,12.30
2022-10-02T23:41:48.692Z,12.20
2022-10-02T23:44:57.135Z,12.20
2022-10-02T23:47:39.803Z,12.10
2022-10-02T23:50:37.105Z,12.10
2022-10-02T23:53:47.788Z,12.10
2022-10-02T23:57:06.772Z,12.10
